Remer, Minnesota
Current Conditions -  °F | °C
As of 1:35 AM on Saturday 29 Nov 2014 (Local Time) from KXVG Reporting Station
Overcast Overcast  
Wind Chill:   Ceiling: 900
Heat Index: 18°   Visibility: 7mi
Dew Point: 16°   Wind: 9mph
Humidity: 93%   Direction: 150°SSE
Pressure: 29.55"   Gusts: NA
Location:  47.06°N, 93.92°W
Report Text: KXVG 290735Z AUTO 15008KT 7SM OVC009 M08/M09 A2955 RMK AO2
Loading
Personal Weather Stations






























Interactive Weather Map New forecast layout! Learn more

10-Day Weather Forecast

Advertisements
Track Severe Weather on mobile